createdAt,value
2019-04-25T00:00:26.086Z,72.55
2019-04-25T00:01:21.823Z,73.05
2019-04-25T00:02:21.796Z,73.86
2019-04-25T00:03:22.598Z,75.48
2019-04-25T00:04:23.693Z,77.03
2019-04-25T00:05:21.747Z,78.01
2019-04-25T00:06:23.044Z,78.55
2019-04-25T00:07:21.738Z,80.27
2019-04-25T00:08:21.633Z,80.47
2019-04-25T00:09:21.879Z,81.90
2019-04-25T00:10:22.061Z,81.69
2019-04-25T00:11:21.631Z,83.25
2019-04-25T00:12:22.249Z,83.55
2019-04-25T00:13:21.843Z,83.65
2019-04-25T00:14:22.603Z,84.77
2019-04-25T00:15:22.384Z,84.97
2019-04-25T00:16:21.618Z,85.48
2019-04-25T00:17:21.465Z,85.27
2019-04-25T00:18:22.102Z,85.58
2019-04-25T00:19:21.886Z,85.78
2019-04-25T00:20:21.444Z,84.97
2019-04-25T00:21:21.961Z,85.38
2019-04-25T00:22:21.676Z,85.42
2019-04-25T00:23:21.698Z,85.38
2019-04-25T00:24:21.842Z,85.78
2019-04-25T00:25:21.863Z,85.62
2019-04-25T00:26:21.270Z,85.78
2019-04-25T00:27:21.628Z,85.88
2019-04-25T00:28:21.669Z,85.62
2019-04-25T00:29:22.058Z,85.27
2019-04-25T00:30:22.485Z,84.91
2019-04-25T00:31:22.055Z,85.17
2019-04-25T00:32:21.677Z,85.68
2019-04-25T00:33:21.594Z,85.52
2019-04-25T00:34:21.833Z,85.93
2019-04-25T00:35:21.688Z,85.62
2019-04-25T00:36:21.782Z,86.22
2019-04-25T00:37:22.446Z,86.43
2019-04-25T00:38:22.211Z,86.13
2019-04-25T00:39:21.757Z,85.82
2019-04-25T00:40:21.950Z,86.33
2019-04-25T00:41:21.334Z,86.02
2019-04-25T00:42:20.732Z,86.68
2019-04-25T00:43:21.473Z,86.53
2019-04-25T00:44:21.946Z,86.57
2019-04-25T00:45:22.312Z,86.27
2019-04-25T00:46:22.435Z,86.73
2019-04-25T00:47:21.647Z,86.47
2019-04-25T00:48:22.212Z,86.77
2019-04-25T00:49:22.032Z,86.77
2019-04-25T00:50:21.881Z,86.88
2019-04-25T00:51:21.773Z,86.91
2019-04-25T00:52:21.146Z,87.52
2019-04-25T00:53:21.209Z,87.32
2019-04-25T00:54:20.408Z,88.13
2019-04-25T00:55:28.249Z,87.77
2019-04-25T00:56:20.379Z,87.97
2019-04-25T00:57:21.977Z,88.07
2019-04-25T00:58:21.484Z,88.48
2019-04-25T00:59:22.007Z,88.28
2019-04-25T01:00:21.638Z,88.38
2019-04-25T01:01:21.788Z,87.97
2019-04-25T01:02:21.424Z,88.48
2019-04-25T01:03:21.487Z,88.07
2019-04-25T01:04:21.738Z,87.87
2019-04-25T01:05:21.618Z,88.32
2019-04-25T01:06:21.971Z,88.21
2019-04-25T01:07:20.075Z,88.42
2019-04-25T01:08:21.891Z,87.71
2019-04-25T01:09:22.217Z,86.80
2019-04-25T01:10:21.419Z,86.49
2019-04-25T01:11:21.403Z,86.69
2019-04-25T01:12:21.482Z,86.39
2019-04-25T01:13:19.905Z,85.68
2019-04-25T01:14:19.864Z,83.81
2019-04-25T01:15:21.393Z,83.81
2019-04-25T01:16:19.898Z,83.40
2019-04-25T01:17:21.222Z,85.74
2019-04-25T01:18:19.760Z,85.50
2019-04-25T01:19:19.782Z,86.05
2019-04-25T01:20:19.812Z,86.55
2019-04-25T01:21:19.677Z,83.81
2019-04-25T01:22:19.670Z,85.53
2019-04-25T01:23:19.618Z,84.72
2019-04-25T01:24:19.595Z,82.70
2019-04-25T01:25:19.567Z,82.39
2019-04-25T01:26:19.545Z,83.71
2019-04-25T01:27:19.537Z,84.32
2019-04-25T01:28:19.484Z,83.61
2019-04-25T01:29:19.456Z,82.39
2019-04-25T01:30:19.429Z,83.57
2019-04-25T01:31:19.400Z,81.99
2019-04-25T01:32:19.406Z,81.48
2019-04-25T01:33:19.350Z,82.09
2019-04-25T01:34:19.320Z,82.09
2019-04-25T01:35:19.298Z,81.85
2019-04-25T01:36:19.268Z,81.99
2019-04-25T01:37:19.262Z,82.25
2019-04-25T01:38:19.218Z,81.38
2019-04-25T01:39:19.187Z,80.93
2019-04-25T01:40:19.159Z,81.04
2019-04-25T01:41:19.139Z,80.73
2019-04-25T01:42:19.142Z,81.13
2019-04-25T01:43:19.079Z,81.54
2019-04-25T01:44:19.049Z,82.05
2019-04-25T01:45:19.025Z,81.74
2019-04-25T01:46:18.997Z,81.54
2019-04-25T01:47:18.991Z,81.24
2019-04-25T01:48:18.943Z,81.24
2019-04-25T01:49:18.915Z,82.15
2019-04-25T01:50:18.894Z,82.45
2019-04-25T01:51:18.862Z,82.15
2019-04-25T01:52:18.860Z,82.45
2019-04-25T01:53:18.810Z,81.54
2019-04-25T01:54:18.787Z,81.34
2019-04-25T01:55:18.763Z,81.04
2019-04-25T01:56:18.728Z,81.10
2019-04-25T01:57:18.738Z,80.99
2019-04-25T01:58:18.674Z,80.49
2019-04-25T01:59:18.648Z,81.10
2019-04-25T02:00:18.630Z,80.49
2019-04-25T02:01:18.593Z,80.39
2019-04-25T02:02:18.591Z,79.88
2019-04-25T02:03:18.539Z,80.19
2019-04-25T02:04:18.518Z,79.47
2019-04-25T02:05:18.484Z,78.97
2019-04-25T02:06:18.457Z,79.24
2019-04-25T02:07:18.456Z,79.27
2019-04-25T02:08:18.405Z,79.38
2019-04-25T02:09:18.378Z,79.47
2019-04-25T02:10:18.351Z,79.17
2019-04-25T02:11:18.321Z,79.03
2019-04-25T02:12:20.259Z,79.17
2019-04-25T02:13:18.272Z,78.83
2019-04-25T02:14:18.240Z,78.97
2019-04-25T02:15:18.221Z,78.97
2019-04-25T02:16:18.191Z,79.07
2019-04-25T02:17:18.162Z,79.07
2019-04-25T02:18:18.168Z,79.07
2019-04-25T02:19:18.125Z,79.27
2019-04-25T02:20:18.148Z,78.87
2019-04-25T02:21:18.057Z,79.47
2019-04-25T02:22:18.030Z,79.68
2019-04-25T02:23:18.656Z,79.47
2019-04-25T02:24:17.972Z,79.98
2019-04-25T02:25:17.950Z,80.19
2019-04-25T02:26:18.627Z,80.19
2019-04-25T02:27:17.893Z,80.19
2019-04-25T02:28:17.892Z,80.29
2019-04-25T02:29:17.846Z,79.92
2019-04-25T02:30:17.810Z,80.83
2019-04-25T02:31:18.415Z,80.53
2019-04-25T02:32:17.755Z,80.32
2019-04-25T02:33:17.755Z,81.04
2019-04-25T02:34:18.226Z,81.34
2019-04-25T02:35:17.673Z,82.05
2019-04-25T02:36:17.694Z,81.99
2019-04-25T02:37:17.623Z,81.68
2019-04-25T02:38:17.615Z,81.54
2019-04-25T02:39:17.602Z,82.15
2019-04-25T02:40:17.540Z,82.25
2019-04-25T02:41:17.513Z,82.25
2019-04-25T02:42:17.483Z,81.99
2019-04-25T02:43:17.486Z,81.74
2019-04-25T02:44:17.497Z,81.78
2019-04-25T02:45:17.407Z,82.39
2019-04-25T02:47:17.347Z,82.50
2019-04-25T02:48:17.344Z,82.50
2019-04-25T02:49:29.304Z,82.80
2019-04-25T02:50:17.266Z,82.90
2019-04-25T02:51:17.255Z,83.20
2019-04-25T02:52:18.064Z,82.59
2019-04-25T02:53:17.214Z,83.40
2019-04-25T02:54:17.156Z,83.65
2019-04-25T02:55:30.934Z,82.73
2019-04-25T02:56:30.583Z,82.59
2019-04-25T02:57:17.083Z,82.64
2019-04-25T02:58:17.097Z,82.53
2019-04-25T02:59:17.018Z,82.84
2019-04-25T03:00:16.995Z,82.43
2019-04-25T03:01:22.362Z,82.23
2019-04-25T03:02:17.616Z,82.33
2019-04-25T03:03:16.912Z,81.72
2019-04-25T03:04:16.919Z,80.40
2019-04-25T03:05:16.855Z,80.30
2019-04-25T03:06:16.838Z,79.28
2019-04-25T03:07:17.679Z,79.38
2019-04-25T03:08:16.773Z,79.18
2019-04-25T03:09:16.780Z,78.78
2019-04-25T03:10:16.723Z,78.47
2019-04-25T03:11:16.692Z,78.47
2019-04-25T03:12:29.162Z,78.30
2019-04-25T03:13:16.641Z,77.59
2019-04-25T03:14:16.638Z,76.88
2019-04-25T03:15:16.597Z,77.29
2019-04-25T03:16:16.559Z,76.48
2019-04-25T03:17:16.541Z,77.09
2019-04-25T03:18:16.500Z,77.29
2019-04-25T03:19:16.494Z,76.88
2019-04-25T03:20:16.447Z,77.29
2019-04-25T03:21:17.516Z,76.82
2019-04-25T03:22:16.391Z,77.43
2019-04-25T03:23:16.359Z,77.59
2019-04-25T03:24:16.953Z,78.04
2019-04-25T03:25:17.722Z,78.14
2019-04-25T03:26:16.276Z,78.44
2019-04-25T03:27:16.249Z,78.78
2019-04-25T03:28:16.236Z,78.58
2019-04-25T03:29:16.222Z,79.19
2019-04-25T03:30:17.984Z,79.29
2019-04-25T03:31:22.441Z,79.39
2019-04-25T03:32:19.596Z,79.43
2019-04-25T03:33:19.591Z,79.43
2019-04-25T03:34:20.303Z,78.72
2019-04-25T03:35:17.032Z,78.82
2019-04-25T03:36:16.989Z,78.62
2019-04-25T03:37:15.976Z,78.41
2019-04-25T03:38:15.942Z,78.86
2019-04-25T03:39:16.500Z,78.55
2019-04-25T03:40:15.886Z,79.23
2019-04-25T03:41:15.856Z,79.47
2019-04-25T03:42:15.830Z,79.57
2019-04-25T03:43:15.805Z,79.71
2019-04-25T03:44:15.801Z,80.02
2019-04-25T03:45:15.751Z,80.29
2019-04-25T03:46:15.726Z,80.52
2019-04-25T03:47:15.694Z,80.63
2019-04-25T03:48:15.660Z,80.83
2019-04-25T03:49:15.630Z,80.63
2019-04-25T03:50:15.626Z,81.34
2019-04-25T03:51:15.825Z,81.68
2019-04-25T03:52:15.553Z,82.09
2019-04-25T03:53:15.533Z,82.80
2019-04-25T03:54:15.492Z,82.29
2019-04-25T03:55:15.484Z,83.04
2019-04-25T03:56:15.433Z,83.25
2019-04-25T03:57:15.463Z,83.86
2019-04-25T03:58:15.376Z,84.47
2019-04-25T03:59:16.141Z,84.00
2019-04-25T04:00:15.343Z,84.31
2019-04-25T04:01:15.693Z,84.86
2019-04-25T04:02:15.385Z,84.92
2019-04-25T04:03:15.309Z,84.75
2019-04-25T04:04:16.303Z,85.47
2019-04-25T04:05:15.197Z,85.27
2019-04-25T04:06:15.690Z,85.06
2019-04-25T04:07:15.963Z,84.96
2019-04-25T04:08:15.853Z,85.06
2019-04-25T04:09:15.229Z,84.75
2019-04-25T04:10:15.546Z,84.96
2019-04-25T04:11:15.685Z,84.66
2019-04-25T04:12:15.745Z,84.14
2019-04-25T04:13:15.883Z,84.45
2019-04-25T04:14:15.784Z,84.34
2019-04-25T04:15:15.978Z,84.80
2019-04-25T04:16:15.749Z,84.90
2019-04-25T04:17:15.957Z,85.00
2019-04-25T04:18:17.240Z,84.80
2019-04-25T04:19:15.827Z,85.37
2019-04-25T04:20:15.896Z,85.30
2019-04-25T04:21:16.172Z,85.82
2019-04-25T04:22:15.382Z,86.02
2019-04-25T04:23:15.631Z,85.92
2019-04-25T04:24:15.206Z,86.02
2019-04-25T04:25:14.752Z,85.88
2019-04-25T04:26:14.603Z,86.83
2019-04-25T04:27:15.647Z,85.82
2019-04-25T04:28:14.947Z,85.61
2019-04-25T04:29:15.276Z,86.02
2019-04-25T04:30:15.342Z,86.08
2019-04-25T04:31:15.424Z,85.71
2019-04-25T04:32:14.811Z,86.49
2019-04-25T04:33:27.558Z,85.77
2019-04-25T04:34:23.666Z,86.80
2019-04-25T04:35:15.143Z,85.88
2019-04-25T04:36:17.382Z,85.88
2019-04-25T04:37:15.211Z,85.98
2019-04-25T04:38:15.244Z,85.22
2019-04-25T04:39:16.467Z,84.72
2019-04-25T04:40:16.027Z,84.41
2019-04-25T04:41:15.144Z,84.20
2019-04-25T04:42:14.988Z,84.27
2019-04-25T04:43:15.329Z,84.17
2019-04-25T04:44:15.371Z,83.72
2019-04-25T04:45:15.463Z,82.40
2019-04-25T04:46:16.737Z,81.85
2019-04-25T04:47:15.305Z,80.79
2019-04-25T04:48:14.647Z,80.29
2019-04-25T04:49:15.138Z,80.29
2019-04-25T04:50:14.494Z,79.68
2019-04-25T04:51:14.907Z,79.47
2019-04-25T04:52:14.722Z,78.52
2019-04-25T04:53:14.978Z,78.62
2019-04-25T04:54:14.633Z,78.52
2019-04-25T04:55:16.898Z,78.28
2019-04-25T04:56:15.231Z,77.77
2019-04-25T04:57:23.545Z,77.67
2019-04-25T04:58:14.984Z,77.67
2019-04-25T04:59:14.647Z,77.63
2019-04-25T05:00:14.593Z,77.06
2019-04-25T05:01:14.759Z,76.75
2019-04-25T05:02:15.830Z,76.34
2019-04-25T05:03:14.922Z,76.55
2019-04-25T05:04:14.906Z,76.14
2019-04-25T05:05:14.455Z,76.14
2019-04-25T05:06:14.854Z,76.04
2019-04-25T05:07:14.921Z,75.67
2019-04-25T05:08:14.998Z,75.73
2019-04-25T05:09:15.144Z,75.53
2019-04-25T05:10:16.517Z,75.63
2019-04-25T05:11:15.409Z,75.63
2019-04-25T05:12:14.940Z,75.63
2019-04-25T05:13:15.386Z,75.63
2019-04-25T05:14:14.894Z,75.53
2019-04-25T05:15:15.298Z,75.73
2019-04-25T05:16:15.035Z,75.73
2019-04-25T05:17:14.958Z,75.40
2019-04-25T05:18:15.586Z,75.33
2019-04-25T05:19:15.446Z,74.38
2019-04-25T05:20:15.129Z,75.40
2019-04-25T05:21:14.833Z,74.48
2019-04-25T05:22:14.542Z,74.79
2019-04-25T05:23:14.825Z,73.97
2019-04-25T05:24:15.215Z,73.97
2019-04-25T05:25:15.273Z,73.94
2019-04-25T05:26:14.897Z,73.94
2019-04-25T05:27:15.411Z,73.13
2019-04-25T05:28:15.547Z,73.09
2019-04-25T05:29:15.509Z,73.43
2019-04-25T05:30:15.366Z,72.62
2019-04-25T05:31:15.398Z,73.63
2019-04-25T05:32:13.116Z,73.63
2019-04-25T05:33:14.672Z,72.72
2019-04-25T05:34:14.505Z,72.52
2019-04-25T05:35:14.093Z,72.82
2019-04-25T05:36:14.954Z,72.82
2019-04-25T05:37:14.384Z,72.21
2019-04-25T05:38:14.242Z,72.28
2019-04-25T05:39:15.238Z,71.97
2019-04-25T05:40:14.727Z,72.52
2019-04-25T05:41:14.783Z,72.62
2019-04-25T05:42:14.124Z,72.52
2019-04-25T05:43:13.432Z,72.62
2019-04-25T05:44:13.985Z,72.75
2019-04-25T05:45:13.064Z,73.46
2019-04-25T05:46:13.205Z,72.96
2019-04-25T05:47:12.300Z,73.97
2019-04-25T05:48:12.278Z,73.87
2019-04-25T05:49:13.740Z,73.70
2019-04-25T05:50:13.811Z,74.11
2019-04-25T05:51:13.632Z,74.21
2019-04-25T05:52:13.882Z,74.21
2019-04-25T05:53:12.200Z,74.31
2019-04-25T05:54:12.106Z,74.21
2019-04-25T05:55:12.087Z,74.72
2019-04-25T05:56:12.080Z,74.52
2019-04-25T05:57:13.608Z,74.01
2019-04-25T05:58:13.537Z,73.80
2019-04-25T05:59:13.386Z,74.01
2019-04-25T06:00:13.426Z,74.21
2019-04-25T06:01:13.394Z,73.91
2019-04-25T06:02:11.887Z,74.21
2019-04-25T06:03:13.606Z,73.80
2019-04-25T06:04:13.575Z,74.11
2019-04-25T06:05:13.179Z,73.36
2019-04-25T06:06:13.334Z,73.06
2019-04-25T06:07:11.771Z,72.85
2019-04-25T06:08:11.718Z,71.73
2019-04-25T06:09:11.696Z,71.12
2019-04-25T06:10:11.734Z,72.25
2019-04-25T06:11:11.642Z,71.43
2019-04-25T06:12:13.313Z,70.42
2019-04-25T06:13:11.582Z,70.42
2019-04-25T06:14:11.563Z,70.68
2019-04-25T06:15:13.120Z,70.89
2019-04-25T06:16:13.280Z,69.64
2019-04-25T06:17:11.561Z,69.74
2019-04-25T06:18:11.451Z,69.54
2019-04-25T06:19:15.994Z,68.49
2019-04-25T06:20:11.444Z,67.78
2019-04-25T06:21:11.364Z,67.61
2019-04-25T06:22:11.367Z,68.08
2019-04-25T06:23:11.312Z,66.86
2019-04-25T06:24:11.277Z,67.07
2019-04-25T06:25:13.752Z,66.74
2019-04-25T06:26:22.983Z,66.94
2019-04-25T06:27:11.224Z,67.24
2019-04-25T06:28:11.172Z,66.83
2019-04-25T06:29:11.144Z,66.63
2019-04-25T06:30:11.163Z,66.13
2019-04-25T06:31:11.081Z,66.74
2019-04-25T06:32:11.089Z,65.82
2019-04-25T06:33:11.033Z,65.72
2019-04-25T06:34:11.005Z,65.28
2019-04-25T06:35:10.975Z,65.82
2019-04-25T06:36:10.962Z,65.18
2019-04-25T06:37:10.947Z,64.98
2019-04-25T06:38:10.923Z,65.69
2019-04-25T06:39:10.867Z,64.61
2019-04-25T06:40:10.840Z,65.21
2019-04-25T06:41:10.815Z,65.62
2019-04-25T06:42:10.815Z,65.82
2019-04-25T06:43:10.770Z,64.91
2019-04-25T06:44:10.741Z,64.61
2019-04-25T06:45:10.704Z,64.10
2019-04-25T06:46:10.687Z,63.96
2019-04-25T06:47:10.730Z,63.66
2019-04-25T06:48:10.632Z,63.66
2019-04-25T06:49:10.594Z,63.76
2019-04-25T06:50:10.581Z,63.86
2019-04-25T06:51:10.541Z,63.66
2019-04-25T06:52:10.549Z,64.27
2019-04-25T06:53:10.486Z,63.56
2019-04-25T06:54:10.463Z,63.86
2019-04-25T06:55:10.442Z,63.76
2019-04-25T06:56:10.402Z,62.85
2019-04-25T06:57:10.379Z,63.46
2019-04-25T06:58:12.815Z,63.76
2019-04-25T06:59:10.319Z,63.76
2019-04-25T07:00:10.297Z,62.45
2019-04-25T07:01:10.283Z,63.15
2019-04-25T07:02:10.346Z,63.76
2019-04-25T07:03:10.294Z,63.06
2019-04-25T07:04:10.201Z,63.56
2019-04-25T07:05:10.181Z,63.86
2019-04-25T07:06:10.139Z,63.35
2019-04-25T07:07:12.648Z,63.23
2019-04-25T07:08:10.111Z,62.52
2019-04-25T07:09:10.112Z,62.52
2019-04-25T07:10:10.051Z,62.92
2019-04-25T07:11:10.000Z,62.62
2019-04-25T07:12:09.972Z,62.92
2019-04-25T07:13:09.970Z,63.50
2019-04-25T07:14:10.915Z,62.89
2019-04-25T07:15:09.887Z,62.49
2019-04-25T07:16:09.867Z,62.59
2019-04-25T07:17:09.830Z,62.49
2019-04-25T07:18:09.844Z,61.88
2019-04-25T07:19:09.784Z,62.89
2019-04-25T07:20:09.748Z,62.59
2019-04-25T07:21:09.730Z,63.30
2019-04-25T07:22:09.706Z,62.08
2019-04-25T07:23:09.705Z,61.85
2019-04-25T07:24:09.644Z,61.65
2019-04-25T07:25:09.622Z,60.74
2019-04-25T07:26:09.609Z,60.97
2019-04-25T07:27:09.566Z,60.33
2019-04-25T07:28:16.406Z,60.63
2019-04-25T07:29:09.522Z,60.23
2019-04-25T07:30:09.487Z,61.35
2019-04-25T07:31:09.458Z,61.04
2019-04-25T07:32:09.436Z,61.01
2019-04-25T07:33:09.432Z,60.91
2019-04-25T07:34:09.377Z,60.30
2019-04-25T07:35:09.359Z,60.00
2019-04-25T07:36:09.323Z,59.80
2019-04-25T07:37:09.301Z,60.38
2019-04-25T07:38:09.300Z,59.47
2019-04-25T07:39:10.689Z,59.87
2019-04-25T07:40:09.223Z,59.77
2019-04-25T07:41:09.206Z,58.86
2019-04-25T07:42:09.169Z,59.77
2019-04-25T07:43:09.187Z,60.27
2019-04-25T07:44:09.110Z,60.78
2019-04-25T07:45:09.111Z,60.38
2019-04-25T07:46:09.058Z,60.17
2019-04-25T07:47:09.030Z,60.48
2019-04-25T07:48:09.007Z,59.77
2019-04-25T07:49:09.005Z,59.97
2019-04-25T07:50:08.954Z,60.48
2019-04-25T07:51:08.936Z,58.93
2019-04-25T07:52:11.488Z,57.92
2019-04-25T07:53:08.870Z,57.82
2019-04-25T07:54:08.866Z,58.33
2019-04-25T07:55:08.815Z,59.23
2019-04-25T07:56:08.791Z,58.93
2019-04-25T07:57:08.774Z,58.93
2019-04-25T07:58:08.740Z,58.91
2019-04-25T07:59:08.733Z,59.11
2019-04-25T08:00:08.684Z,59.00
2019-04-25T08:01:08.658Z,59.21
2019-04-25T08:02:08.661Z,57.29
2019-04-25T08:03:08.609Z,57.29
2019-04-25T08:04:08.609Z,57.26
2019-04-25T08:05:08.562Z,57.67
2019-04-25T08:06:08.545Z,57.36
2019-04-25T08:07:08.525Z,57.06
2019-04-25T08:08:08.482Z,56.85
2019-04-25T08:09:08.481Z,55.72
2019-04-25T08:10:08.428Z,55.92
2019-04-25T08:11:08.398Z,56.32
2019-04-25T08:12:08.375Z,56.12
2019-04-25T08:13:08.343Z,56.32
2019-04-25T08:14:08.362Z,57.23
2019-04-25T08:15:08.292Z,57.31
2019-04-25T08:16:08.281Z,56.50
2019-04-25T08:17:08.236Z,55.49
2019-04-25T08:18:08.213Z,54.99
2019-04-25T08:19:08.207Z,55.46
2019-04-25T08:20:08.164Z,56.07
2019-04-25T08:21:08.136Z,56.17
2019-04-25T08:22:08.123Z,54.76
2019-04-25T08:23:08.086Z,54.86
2019-04-25T08:24:08.087Z,55.57
2019-04-25T08:25:08.048Z,56.15
2019-04-25T08:26:08.006Z,56.15
2019-04-25T08:27:07.982Z,56.04
2019-04-25T08:28:07.967Z,55.14
2019-04-25T08:29:07.961Z,53.72
2019-04-25T08:30:07.904Z,54.53
2019-04-25T08:31:07.886Z,55.84
2019-04-25T08:32:07.859Z,54.53
2019-04-25T08:33:07.832Z,53.80
2019-04-25T08:34:07.934Z,54.21
2019-04-25T08:35:07.777Z,54.71
2019-04-25T08:36:09.281Z,55.21
2019-04-25T08:37:17.328Z,54.18
2019-04-25T08:38:07.715Z,54.18
2019-04-25T08:39:07.678Z,53.88
2019-04-25T08:40:07.677Z,53.67
2019-04-25T08:41:07.634Z,54.08
2019-04-25T08:42:07.601Z,54.38
2019-04-25T08:43:07.583Z,54.99
2019-04-25T08:44:07.554Z,54.99
2019-04-25T08:45:07.557Z,54.15
2019-04-25T08:46:07.503Z,51.84
2019-04-25T08:47:07.474Z,51.66
2019-04-25T08:48:07.453Z,52.24
2019-04-25T08:49:07.428Z,52.04
2019-04-25T08:50:07.436Z,52.74
2019-04-25T08:51:07.385Z,52.14
2019-04-25T08:52:07.350Z,52.62
2019-04-25T08:53:07.322Z,51.61
2019-04-25T08:54:07.315Z,51.11
2019-04-25T08:55:07.309Z,50.98
2019-04-25T08:56:07.279Z,51.68
2019-04-25T08:57:07.229Z,50.89
2019-04-25T08:58:07.232Z,50.08
2019-04-25T08:59:08.099Z,48.29
2019-04-25T09:00:07.207Z,47.36
2019-04-25T09:01:07.148Z,48.27
2019-04-25T09:02:07.107Z,48.37
2019-04-25T09:03:07.083Z,49.48
2019-04-25T09:04:07.064Z,50.08
2019-04-25T09:05:07.060Z,50.05
2019-04-25T09:06:07.015Z,50.96
2019-04-25T09:07:06.988Z,50.56
2019-04-25T09:08:06.959Z,50.93
2019-04-25T09:09:07.188Z,50.84
2019-04-25T09:10:06.938Z,48.63
2019-04-25T09:11:06.900Z,47.42
2019-04-25T09:12:06.858Z,47.72
2019-04-25T09:13:06.837Z,48.20
2019-04-25T09:14:06.819Z,47.00
2019-04-25T09:15:06.814Z,47.17
2019-04-25T09:16:06.770Z,47.47
2019-04-25T09:17:06.746Z,46.77
2019-04-25T09:18:06.725Z,46.47
2019-04-25T09:19:06.701Z,47.07
2019-04-25T09:20:06.703Z,46.77
2019-04-25T09:21:06.644Z,46.45
2019-04-25T09:22:06.625Z,46.83
2019-04-25T09:23:06.599Z,46.73
2019-04-25T09:24:06.579Z,45.72
2019-04-25T09:25:06.585Z,44.60
2019-04-25T09:26:06.535Z,41.60
2019-04-25T09:27:06.509Z,42.90
2019-04-25T09:28:06.487Z,43.88
2019-04-25T09:29:16.703Z,44.18
2019-04-25T09:30:06.469Z,44.18
2019-04-25T09:31:06.416Z,42.97
2019-04-25T09:32:06.393Z,43.16
2019-04-25T09:33:06.366Z,42.96
2019-04-25T09:34:06.383Z,44.46
2019-04-25T09:35:06.386Z,43.46
2019-04-25T09:36:06.931Z,42.85
2019-04-25T09:37:06.279Z,41.96
2019-04-25T09:38:06.255Z,41.66
2019-04-25T09:39:06.230Z,41.74
2019-04-25T09:40:06.209Z,43.13
2019-04-25T09:41:06.210Z,42.24
2019-04-25T09:42:06.166Z,42.43
2019-04-25T09:43:06.142Z,42.52
2019-04-25T09:44:06.120Z,42.11
2019-04-25T09:45:06.093Z,42.61
2019-04-25T09:46:06.114Z,42.02
2019-04-25T09:47:06.057Z,42.69
2019-04-25T09:48:06.029Z,42.82
2019-04-25T09:49:06.006Z,42.82
2019-04-25T09:50:05.986Z,43.09
2019-04-25T09:51:05.987Z,43.40
2019-04-25T09:52:05.945Z,42.79
2019-04-25T09:53:05.924Z,42.61
2019-04-25T09:54:05.899Z,42.32
2019-04-25T09:55:05.876Z,41.93
2019-04-25T09:56:05.883Z,42.63
2019-04-25T09:57:05.838Z,42.33
2019-04-25T09:58:05.822Z,42.83
2019-04-25T09:59:05.790Z,42.63
2019-04-25T10:00:05.777Z,42.63
2019-04-25T10:01:05.833Z,41.71
2019-04-25T10:02:05.726Z,41.11
2019-04-25T10:03:05.704Z,41.09
2019-04-25T10:04:05.686Z,39.11
2019-04-25T10:05:05.663Z,38.42
2019-04-25T10:06:05.691Z,37.31
2019-04-25T10:07:05.617Z,37.49
2019-04-25T10:08:05.607Z,38.57
2019-04-25T10:09:05.577Z,36.99
2019-04-25T10:10:05.551Z,38.68
2019-04-25T10:11:05.555Z,39.20
2019-04-25T10:12:05.511Z,38.70
2019-04-25T10:13:06.559Z,38.79
2019-04-25T10:14:05.470Z,37.49
2019-04-25T10:15:05.451Z,38.31
2019-04-25T10:16:05.448Z,39.51
2019-04-25T10:17:05.400Z,39.22
2019-04-25T10:18:05.382Z,39.72
2019-04-25T10:19:05.360Z,39.72
2019-04-25T10:20:05.341Z,39.31
2019-04-25T10:21:05.330Z,39.41
2019-04-25T10:22:05.320Z,39.03
2019-04-25T10:23:05.276Z,40.23
2019-04-25T10:24:05.301Z,39.23
2019-04-25T10:25:05.231Z,39.05
2019-04-25T10:26:05.207Z,39.13
2019-04-25T10:27:05.210Z,38.73
2019-04-25T10:28:05.160Z,39.05
2019-04-25T10:29:05.140Z,40.25
2019-04-25T10:30:16.843Z,40.65
2019-04-25T10:31:05.093Z,40.95
2019-04-25T10:32:05.099Z,40.65
2019-04-25T10:33:05.053Z,40.25
2019-04-25T10:34:05.124Z,40.15
2019-04-25T10:35:05.002Z,40.65
2019-04-25T10:36:04.993Z,40.55
2019-04-25T10:37:04.985Z,40.25
2019-04-25T10:38:04.946Z,40.05
2019-04-25T10:39:10.718Z,40.25
2019-04-25T10:40:04.896Z,41.55
2019-04-25T10:41:04.873Z,41.03
2019-04-25T10:42:04.885Z,40.83
2019-04-25T10:43:04.830Z,41.13
2019-04-25T10:44:04.801Z,40.83
2019-04-25T10:45:04.790Z,40.73
2019-04-25T10:46:05.352Z,40.53
2019-04-25T10:47:04.784Z,41.24
2019-04-25T10:48:04.715Z,41.33
2019-04-25T10:49:04.707Z,42.33
2019-04-25T10:50:05.660Z,41.83
2019-04-25T10:51:04.647Z,41.63
2019-04-25T10:52:04.647Z,40.83
2019-04-25T10:53:04.599Z,40.93
2019-04-25T10:54:04.626Z,40.33
2019-04-25T10:55:04.557Z,40.03
2019-04-25T10:56:06.009Z,39.63
2019-04-25T10:57:06.524Z,39.51
2019-04-25T10:58:04.486Z,38.81
2019-04-25T10:59:04.466Z,36.81
2019-04-25T11:00:09.072Z,36.73
2019-04-25T11:01:04.425Z,38.73
2019-04-25T11:02:04.423Z,38.93
2019-04-25T11:03:04.372Z,39.22
2019-04-25T11:04:04.719Z,39.41
2019-04-25T11:05:04.324Z,38.61
2019-04-25T11:06:04.306Z,38.61
2019-04-25T11:07:04.302Z,40.22
2019-04-25T11:08:04.376Z,39.31
2019-04-25T11:09:04.236Z,39.31
2019-04-25T11:10:04.211Z,38.81
2019-04-25T11:11:04.190Z,38.29
2019-04-25T11:12:04.193Z,37.29
2019-04-25T11:13:04.143Z,37.19
2019-04-25T11:14:04.118Z,37.59
2019-04-25T11:15:04.101Z,37.10
2019-04-25T11:16:04.072Z,36.79
2019-04-25T11:17:04.082Z,36.69
2019-04-25T11:18:04.285Z,36.79
2019-04-25T11:19:04.006Z,36.40
2019-04-25T11:20:05.516Z,36.69
2019-04-25T11:21:05.886Z,37.29
2019-04-25T11:22:04.059Z,36.99
2019-04-25T11:23:03.953Z,37.59
2019-04-25T11:24:04.117Z,37.59
2019-04-25T11:25:03.879Z,37.27
2019-04-25T11:26:03.982Z,36.68
2019-04-25T11:27:04.312Z,36.78
2019-04-25T11:28:03.950Z,36.88
2019-04-25T11:29:03.782Z,35.68
2019-04-25T11:30:10.852Z,36.88
2019-04-25T11:31:05.172Z,36.78
2019-04-25T11:32:03.742Z,35.58
2019-04-25T11:33:03.784Z,35.66
2019-04-25T11:34:03.717Z,36.66
2019-04-25T11:35:05.057Z,36.08
2019-04-25T11:36:04.195Z,35.58
2019-04-25T11:37:05.681Z,35.58
2019-04-25T11:38:03.647Z,36.68
2019-04-25T11:39:04.122Z,36.47
2019-04-25T11:40:04.312Z,37.38
2019-04-25T11:41:03.961Z,38.85
2019-04-25T11:42:03.500Z,38.36
2019-04-25T11:43:04.298Z,37.26
2019-04-25T11:44:03.547Z,38.16
2019-04-25T11:45:04.831Z,38.56
2019-04-25T11:46:04.903Z,39.15
2019-04-25T11:47:03.905Z,38.76
2019-04-25T11:48:03.383Z,38.56
2019-04-25T11:49:04.458Z,38.56
2019-04-25T11:50:03.942Z,38.14
2019-04-25T11:51:03.634Z,36.94
2019-04-25T11:52:05.296Z,36.74
2019-04-25T11:53:04.751Z,35.35
2019-04-25T11:54:03.596Z,35.64
2019-04-25T11:55:04.185Z,35.63
2019-04-25T11:56:03.697Z,35.33
2019-04-25T11:57:03.564Z,34.63
2019-04-25T11:58:03.676Z,34.53
2019-04-25T11:59:04.533Z,34.93
2019-04-25T12:00:04.203Z,34.23
2019-04-25T12:01:03.364Z,33.22
2019-04-25T12:02:04.669Z,33.72
2019-04-25T12:03:03.681Z,33.51
2019-04-25T12:04:04.099Z,33.01
2019-04-25T12:05:03.002Z,33.42
2019-04-25T12:06:02.948Z,34.51
2019-04-25T12:07:04.184Z,34.43
2019-04-25T12:08:04.091Z,33.43
2019-04-25T12:09:04.102Z,34.03
2019-04-25T12:10:03.753Z,34.61
2019-04-25T12:11:02.857Z,33.51
2019-04-25T12:12:03.548Z,33.22
2019-04-25T12:13:02.876Z,33.22
2019-04-25T12:14:04.268Z,33.90
2019-04-25T12:15:04.352Z,33.81
2019-04-25T12:16:04.134Z,32.70
2019-04-25T12:17:03.832Z,32.90
2019-04-25T12:18:04.490Z,32.70
2019-04-25T12:19:02.666Z,32.70
2019-04-25T12:20:03.876Z,33.30
2019-04-25T12:21:04.145Z,33.30
2019-04-25T12:22:04.064Z,32.50
2019-04-25T12:23:08.111Z,32.59
2019-04-25T12:24:05.445Z,31.99
2019-04-25T12:25:02.549Z,31.70
2019-04-25T12:26:03.910Z,31.90
2019-04-25T12:27:04.159Z,31.89
2019-04-25T12:28:04.249Z,31.70
2019-04-25T12:29:04.257Z,32.10
2019-04-25T12:30:03.870Z,31.49
2019-04-25T12:31:02.406Z,32.09
2019-04-25T12:32:03.928Z,32.39
2019-04-25T12:33:03.365Z,31.39
2019-04-25T12:34:03.432Z,32.59
2019-04-25T12:35:02.324Z,33.28
2019-04-25T12:36:02.298Z,32.68
2019-04-25T12:37:02.280Z,32.39
2019-04-25T12:38:03.475Z,31.59
2019-04-25T12:39:03.382Z,32.48
2019-04-25T12:40:04.067Z,31.69
2019-04-25T12:41:03.688Z,31.39
2019-04-25T12:42:02.181Z,31.59
2019-04-25T12:43:03.166Z,32.09
2019-04-25T12:44:03.588Z,31.49
2019-04-25T12:45:03.934Z,31.67
2019-04-25T12:46:02.125Z,31.67
2019-04-25T12:47:03.348Z,32.07
2019-04-25T12:48:02.048Z,31.77
2019-04-25T12:49:02.041Z,30.77
2019-04-25T12:50:01.997Z,30.68
2019-04-25T12:51:03.224Z,30.69
2019-04-25T12:52:01.953Z,30.69
2019-04-25T12:53:03.575Z,31.09